Amherst, Maine
Current Conditions -  °F | °C
As of 5:35 AM on Thursday 27 Nov 2014 (Local Time) from KBHB Reporting Station
Overcast Overcast  
Wind Chill: 16°   Ceiling: 1300
Heat Index: 28°   Visibility: 2mi
Dew Point: 28°   Wind: 18mph
Humidity: 100%   Direction: 360°N
Pressure: 29.61"   Gusts: 31mph
Location:  44.6651°N, 68.3944°W
Report Text: KBHB 271035Z AUTO 36016G27KT 2SM BKN013 OVC019 M02/M02 A2961 RMK AO1
Loading
Personal Weather Stations






























Interactive Weather Map New forecast layout! Learn more

10-Day Weather Forecast

Advertisements
Track Severe Weather on mobile